Time;durP1;ratioP1;P1;durP2;ratioP2;P2;SDS_P1;SDS_P2;PMS_P1;PMS_P2;Temp;Humidity;BMP_temperature;BMP_pressure;BME280_temperature;BME280_humidity;BME280_pressure;Samples;Min_cycle;Max_cycle;Signal;HPM_P1;HPM_P2
2021/12/02 00:01:05;;;;;;;0.80;0.80;;;;;;;;;;5019328;28;20431;-96
2021/12/02 00:03:35;;;;;;;1.13;1.03;;;;;;;;;;5020780;28;20414;-96
2021/12/02 00:06:01;;;;;;;0.80;0.80;;;;;;;;;;5024204;28;20453;-96
2021/12/02 00:08:27;;;;;;;1.10;1.00;;;;;;;;;;5025069;28;20434;-96
2021/12/02 00:10:53;;;;;;;1.07;0.97;;;;;;;;;;5019830;28;20444;-96
2021/12/02 00:13:23;;;;;;;1.10;1.00;;;;;;;;;;5019583;28;20426;-96
2021/12/02 00:21:03;;;;;;;1.10;1.00;;;;;;;;;;5045459;28;20788;-96
2021/12/02 00:21:20;;;;;;;1.10;1.00;;;;;;;;;;4985125;28;20465;-96
2021/12/02 00:23:55;;;;;;;1.00;0.90;;;;;;;;;;5011629;28;20434;-96
2021/12/02 00:26:22;;;;;;;0.80;0.80;;;;;;;;;;5016847;28;20457;-95
2021/12/02 00:28:53;;;;;;;1.10;1.00;;;;;;;;;;5015389;28;20984;-95
2021/12/02 00:31:19;;;;;;;1.07;0.97;;;;;;;;;;5004472;28;20431;-95
2021/12/02 00:33:54;;;;;;;0.93;0.90;;;;;;;;;;5018896;28;20926;-96
2021/12/02 00:36:24;;;;;;;1.10;1.00;;;;;;;;;;5021412;28;20433;-96
2021/12/02 00:38:51;;;;;;;0.80;0.80;;;;;;;;;;5019546;28;20446;-95
2021/12/02 00:41:18;;;;;;;1.10;1.00;;;;;;;;;;5013940;28;20439;-96
2021/12/02 00:43:47;;;;;;;0.93;0.90;;;;;;;;;;5011368;28;20530;-96
2021/12/02 00:46:17;;;;;;;0.97;0.90;;;;;;;;;;5017300;28;20571;-94
2021/12/02 00:48:46;;;;;;;0.80;0.80;;;;;;;;;;5006463;28;20447;-95
2021/12/02 00:51:13;;;;;;;1.00;0.90;;;;;;;;;;5013857;28;20423;-94
2021/12/02 00:53:42;;;;;;;1.10;1.00;;;;;;;;;;5017257;28;20410;-96
2021/12/02 00:56:10;;;;;;;0.93;0.90;;;;;;;;;;5017184;28;20444;-95
2021/12/02 00:58:37;;;;;;;0.90;0.90;;;;;;;;;;5013290;28;20427;-96
2021/12/02 01:01:03;;;;;;;0.90;0.90;;;;;;;;;;5018079;28;20422;-96
2021/12/02 01:03:35;;;;;;;1.13;1.03;;;;;;;;;;5019528;28;20422;-95
2021/12/02 01:06:06;;;;;;;0.80;0.70;;;;;;;;;;5016578;28;20480;-94
2021/12/02 01:08:36;;;;;;;0.90;0.90;;;;;;;;;;5018924;28;20880;-96
2021/12/02 01:11:03;;;;;;;0.83;0.83;;;;;;;;;;5018612;28;20422;-95
2021/12/02 01:13:29;;;;;;;0.80;0.80;;;;;;;;;;5033283;28;20449;-95
2021/12/02 01:15:55;;;;;;;1.07;0.97;;;;;;;;;;5005169;28;20959;-96
2021/12/02 01:18:22;;;;;;;1.20;1.10;;;;;;;;;;5020319;28;20578;-95
2021/12/02 01:20:48;;;;;;;0.93;0.90;;;;;;;;;;5030134;28;20798;-95
2021/12/02 01:23:17;;;;;;;1.03;0.93;;;;;;;;;;5019466;28;20453;-96
2021/12/02 01:25:45;;;;;;;0.93;0.90;;;;;;;;;;5018119;28;20442;-95
2021/12/02 01:28:14;;;;;;;0.93;0.90;;;;;;;;;;5031602;28;20484;-95
2021/12/02 01:30:41;;;;;;;1.10;1.00;;;;;;;;;;5015435;28;20473;-95
2021/12/02 01:33:13;;;;;;;1.10;1.00;;;;;;;;;;5015541;28;20430;-94
2021/12/02 01:35:39;;;;;;;0.90;0.90;;;;;;;;;;5017351;28;20467;-94
2021/12/02 01:38:05;;;;;;;0.80;0.80;;;;;;;;;;5015710;28;20422;-94
2021/12/02 01:40:47;;;;;;;0.87;0.83;;;;;;;;;;5015649;28;20426;-94
2021/12/02 01:43:20;;;;;;;0.87;0.87;;;;;;;;;;5002850;28;20753;-94
2021/12/02 01:45:46;;;;;;;0.80;0.77;;;;;;;;;;5014305;28;20543;-94
2021/12/02 01:48:16;;;;;;;0.80;0.80;;;;;;;;;;5015811;28;20527;-94
2021/12/02 01:50:44;;;;;;;0.90;0.90;;;;;;;;;;5016348;28;20414;-94
2021/12/02 01:53:14;;;;;;;1.00;0.90;;;;;;;;;;5014595;28;20438;-94
2021/12/02 01:56:07;;;;;;;;;;;;;;;;;;;;;
2021/12/02 01:59:08;;;;;;;;;;;;;;;;;;;;;
2021/12/02 02:01:47;;;;;;;0.80;0.80;;;;;;;;;;5031957;28;20444;-94
2021/12/02 02:04:14;;;;;;;0.80;0.77;;;;;;;;;;5014880;28;20430;-93
2021/12/02 02:06:45;;;;;;;0.90;0.90;;;;;;;;;;5014705;28;20949;-93
2021/12/02 02:09:47;;;;;;;0.90;0.90;;;;;;;;;;5011920;28;20490;-94
2021/12/02 02:12:08;;;;;;;0.83;0.83;;;;;;;;;;5008940;28;21053;-94
2021/12/02 02:14:44;;;;;;;0.90;0.90;;;;;;;;;;5025409;28;20437;-94
2021/12/02 02:17:26;;;;;;;1.00;0.90;;;;;;;;;;5014557;28;20488;-94
2021/12/02 02:19:52;;;;;;;0.87;0.87;;;;;;;;;;5010730;28;20792;-93
2021/12/02 02:22:23;;;;;;;0.90;0.90;;;;;;;;;;5014923;28;20434;-92
2021/12/02 02:24:55;;;;;;;0.97;0.90;;;;;;;;;;5015124;28;20456;-93
2021/12/02 02:27:21;;;;;;;1.00;0.93;;;;;;;;;;5032569;28;20543;-93
2021/12/02 02:29:47;;;;;;;0.80;0.80;;;;;;;;;;5012195;28;20464;-93
2021/12/02 02:32:13;;;;;;;1.13;1.03;;;;;;;;;;5010844;28;20531;-93
2021/12/02 02:34:39;;;;;;;0.87;0.87;;;;;;;;;;5014713;28;20803;-94
2021/12/02 02:37:06;;;;;;;0.97;0.90;;;;;;;;;;5014519;28;20452;-94
2021/12/02 02:39:34;;;;;;;0.87;0.87;;;;;;;;;;5014531;28;20426;-94
2021/12/02 02:42:01;;;;;;;1.00;0.90;;;;;;;;;;5013717;28;20445;-93
2021/12/02 02:44:28;;;;;;;1.00;0.90;;;;;;;;;;5016114;28;20426;-93
2021/12/02 02:46:54;;;;;;;0.80;0.80;;;;;;;;;;5011148;28;20481;-93
2021/12/02 02:49:20;;;;;;;0.97;0.90;;;;;;;;;;5012299;28;20797;-93
2021/12/02 02:51:53;;;;;;;1.03;0.93;;;;;;;;;;5014090;28;20449;-93
2021/12/02 02:54:19;;;;;;;1.10;1.00;;;;;;;;;;5016086;28;20992;-93
2021/12/02 02:56:53;;;;;;;0.80;0.80;;;;;;;;;;5018040;28;20517;-93
2021/12/02 02:59:34;;;;;;;0.80;0.80;;;;;;;;;;5004840;28;20550;-93
2021/12/02 03:02:10;;;;;;;0.80;0.80;;;;;;;;;;5017954;28;20500;-93
2021/12/02 03:04:44;;;;;;;0.97;0.90;;;;;;;;;;5017749;28;20422;-93
2021/12/02 03:07:18;;;;;;;0.90;0.90;;;;;;;;;;5016846;28;20924;-92
2021/12/02 03:09:54;;;;;;;1.10;1.00;;;;;;;;;;5018060;28;20445;-92
2021/12/02 03:12:27;;;;;;;1.00;0.93;;;;;;;;;;5013377;28;20422;-92
2021/12/02 03:17:27;;;;;;;0.83;0.83;;;;;;;;;;5031367;28;20509;-94
2021/12/02 03:22:46;;;;;;;1.00;0.93;;;;;;;;;;5001891;28;20442;-93
2021/12/02 03:25:12;;;;;;;0.83;0.83;;;;;;;;;;5017257;28;20430;-93
2021/12/02 03:27:38;;;;;;;0.97;0.90;;;;;;;;;;5017899;28;20474;-93
2021/12/02 03:30:06;;;;;;;0.90;0.90;;;;;;;;;;5016956;28;20434;-91
2021/12/02 03:32:32;;;;;;;0.90;0.90;;;;;;;;;;5017685;28;20449;-93
2021/12/02 03:34:58;;;;;;;0.80;0.80;;;;;;;;;;5018227;28;20414;-93
2021/12/02 03:37:24;;;;;;;0.90;0.90;;;;;;;;;;5016229;28;20438;-93
2021/12/02 03:39:50;;;;;;;0.90;0.90;;;;;;;;;;5017319;28;20479;-92
2021/12/02 03:42:16;;;;;;;0.80;0.70;;;;;;;;;;5017456;28;20433;-94
2021/12/02 03:44:42;;;;;;;0.80;0.80;;;;;;;;;;5016802;28;20425;-93
2021/12/02 03:47:08;;;;;;;1.10;1.00;;;;;;;;;;5019181;28;20575;-94
2021/12/02 03:49:35;;;;;;;0.80;0.80;;;;;;;;;;5015397;28;20455;-93
2021/12/02 03:52:01;;;;;;;1.00;0.90;;;;;;;;;;5015690;28;20410;-93
2021/12/02 03:54:27;;;;;;;1.10;1.00;;;;;;;;;;5013940;28;20446;-93
2021/12/02 03:56:53;;;;;;;1.40;1.30;;;;;;;;;;5016359;28;20792;-91
2021/12/02 03:59:19;;;;;;;1.20;1.10;;;;;;;;;;5017004;28;20458;-93
2021/12/02 04:01:45;;;;;;;0.80;0.80;;;;;;;;;;5016388;28;20430;-92
2021/12/02 04:04:11;;;;;;;0.80;0.77;;;;;;;;;;5006116;28;20431;-93
2021/12/02 04:06:37;;;;;;;0.80;0.80;;;;;;;;;;5012840;28;20470;-93
2021/12/02 04:09:10;;;;;;;0.80;0.80;;;;;;;;;;5007720;28;20445;-93
2021/12/02 04:11:41;;;;;;;0.90;0.90;;;;;;;;;;5010679;28;20437;-92
2021/12/02 04:14:20;;;;;;;0.83;0.83;;;;;;;;;;5016982;28;20532;-92
2021/12/02 04:17:01;;;;;;;1.10;1.00;;;;;;;;;;5017116;28;20426;-93
2021/12/02 04:19:27;;;;;;;0.90;0.90;;;;;;;;;;5016861;28;20532;-92
2021/12/02 04:21:53;;;;;;;0.80;0.77;;;;;;;;;;5002702;28;20521;-93
2021/12/02 04:24:19;;;;;;;1.10;1.00;;;;;;;;;;5016534;28;20438;-92
2021/12/02 04:26:45;;;;;;;0.80;0.80;;;;;;;;;;5015745;28;20947;-94
2021/12/02 04:29:11;;;;;;;0.80;0.70;;;;;;;;;;5018467;28;20414;-93
2021/12/02 04:31:38;;;;;;;0.87;0.87;;;;;;;;;;5013580;28;20445;-93
2021/12/02 04:34:04;;;;;;;0.87;0.87;;;;;;;;;;5013874;28;20441;-94
2021/12/02 04:36:30;;;;;;;0.90;0.90;;;;;;;;;;5015604;28;20432;-93
2021/12/02 04:38:56;;;;;;;0.87;0.87;;;;;;;;;;5014037;28;20442;-93
2021/12/02 04:41:22;;;;;;;0.80;0.80;;;;;;;;;;5020808;28;20426;-93
2021/12/02 04:43:48;;;;;;;0.83;0.83;;;;;;;;;;5014867;28;20457;-93
2021/12/02 04:46:14;;;;;;;0.80;0.70;;;;;;;;;;5019274;28;20993;-92
2021/12/02 04:48:40;;;;;;;1.13;1.03;;;;;;;;;;5005787;28;20435;-93
2021/12/02 04:51:07;;;;;;;0.97;0.90;;;;;;;;;;5015854;28;20427;-93
2021/12/02 04:53:33;;;;;;;0.83;0.80;;;;;;;;;;5016191;28;20440;-92
2021/12/02 04:55:59;;;;;;;0.80;0.80;;;;;;;;;;5002340;28;20411;-93
2021/12/02 04:58:25;;;;;;;0.80;0.80;;;;;;;;;;5014941;28;20419;-91
2021/12/02 05:00:51;;;;;;;0.80;0.80;;;;;;;;;;5015600;28;20785;-92
2021/12/02 05:03:17;;;;;;;0.80;0.80;;;;;;;;;;5009115;28;20485;-92
2021/12/02 05:05:43;;;;;;;1.03;0.93;;;;;;;;;;5012685;28;20419;-93
2021/12/02 05:08:09;;;;;;;0.90;0.90;;;;;;;;;;5019137;28;21004;-93
2021/12/02 05:10:35;;;;;;;0.80;0.70;;;;;;;;;;5015006;28;20430;-93
2021/12/02 05:13:01;;;;;;;0.80;0.80;;;;;;;;;;5015824;28;20930;-94
2021/12/02 05:15:27;;;;;;;1.00;0.90;;;;;;;;;;5014918;28;20521;-93
2021/12/02 05:17:53;;;;;;;0.80;0.80;;;;;;;;;;5015222;28;20445;-93
2021/12/02 05:20:20;;;;;;;1.00;0.90;;;;;;;;;;5014981;28;20964;-92
2021/12/02 05:22:46;;;;;;;1.10;1.00;;;;;;;;;;5007383;28;20946;-92
2021/12/02 05:25:12;;;;;;;0.90;0.90;;;;;;;;;;5013682;28;20950;-93
2021/12/02 05:27:38;;;;;;;1.00;0.90;;;;;;;;;;5015161;28;20921;-92
2021/12/02 05:30:04;;;;;;;0.80;0.80;;;;;;;;;;5015192;28;20551;-92
2021/12/02 05:32:30;;;;;;;0.80;0.80;;;;;;;;;;5011067;28;20486;-93
2021/12/02 05:34:57;;;;;;;0.93;0.90;;;;;;;;;;5013811;28;20480;-93
2021/12/02 05:37:24;;;;;;;0.80;0.80;;;;;;;;;;5014584;28;20440;-95
2021/12/02 05:39:50;;;;;;;0.80;0.70;;;;;;;;;;5015008;28;20434;-94
2021/12/02 05:42:16;;;;;;;0.80;0.80;;;;;;;;;;5015031;28;20430;-93
2021/12/02 05:44:43;;;;;;;0.80;0.80;;;;;;;;;;5014870;28;20985;-93
2021/12/02 05:47:09;;;;;;;0.83;0.80;;;;;;;;;;4998254;28;21004;-94
2021/12/02 05:49:35;;;;;;;0.80;0.80;;;;;;;;;;5006757;28;20466;-94
2021/12/02 05:52:01;;;;;;;0.90;0.90;;;;;;;;;;4991682;28;20548;-92
2021/12/02 05:54:27;;;;;;;0.93;0.90;;;;;;;;;;5008784;28;21186;-93
2021/12/02 05:56:53;;;;;;;0.97;0.90;;;;;;;;;;4998322;28;20912;-93
2021/12/02 05:59:19;;;;;;;1.00;0.90;;;;;;;;;;4993863;28;20938;-92
2021/12/02 06:01:45;;;;;;;0.83;0.80;;;;;;;;;;4993186;28;20962;-92
2021/12/02 06:04:11;;;;;;;0.90;0.90;;;;;;;;;;4991772;28;20443;-93
2021/12/02 06:06:37;;;;;;;0.80;0.80;;;;;;;;;;4984544;28;20963;-92
2021/12/02 06:09:04;;;;;;;1.07;0.97;;;;;;;;;;4995133;28;20439;-93
2021/12/02 06:11:30;;;;;;;1.10;1.00;;;;;;;;;;5001728;28;20511;-93
2021/12/02 06:14:03;;;;;;;0.90;0.90;;;;;;;;;;4988458;28;20902;-93
2021/12/02 06:16:29;;;;;;;0.80;0.80;;;;;;;;;;4989952;28;20439;-93
2021/12/02 06:18:55;;;;;;;0.90;0.90;;;;;;;;;;4997654;28;20496;-93
2021/12/02 06:21:21;;;;;;;0.80;0.70;;;;;;;;;;4996081;28;20440;-94
2021/12/02 06:23:47;;;;;;;1.10;1.00;;;;;;;;;;4994538;28;20474;-93
2021/12/02 06:26:12;;;;;;;1.07;0.97;;;;;;;;;;4993418;28;20484;-93
2021/12/02 06:28:38;;;;;;;1.10;1.00;;;;;;;;;;4991186;28;20455;-93
2021/12/02 06:31:06;;;;;;;1.00;0.90;;;;;;;;;;4995382;28;20470;-93
2021/12/02 06:33:32;;;;;;;0.80;0.80;;;;;;;;;;4978256;28;20433;-93
2021/12/02 06:35:58;;;;;;;0.80;0.80;;;;;;;;;;4986336;28;20529;-94
2021/12/02 06:38:24;;;;;;;0.80;0.70;;;;;;;;;;4994438;28;20569;-94
2021/12/02 06:40:50;;;;;;;1.00;0.90;;;;;;;;;;4990765;28;20506;-93
2021/12/02 06:43:16;;;;;;;1.10;1.00;;;;;;;;;;4994252;28;20466;-94
2021/12/02 06:45:43;;;;;;;1.00;0.90;;;;;;;;;;4998752;28;20435;-93
2021/12/02 06:48:09;;;;;;;0.80;0.80;;;;;;;;;;4987565;28;20476;-93
2021/12/02 06:50:36;;;;;;;0.87;0.87;;;;;;;;;;4989369;28;20494;-94
2021/12/02 06:53:03;;;;;;;0.80;0.80;;;;;;;;;;4994620;28;20435;-94
2021/12/02 06:55:29;;;;;;;1.00;0.90;;;;;;;;;;4995184;28;20424;-94
2021/12/02 06:57:55;;;;;;;0.90;0.90;;;;;;;;;;4993087;28;20450;-92
2021/12/02 07:00:22;;;;;;;0.90;0.90;;;;;;;;;;4994236;28;20484;-95
2021/12/02 07:02:48;;;;;;;0.80;0.80;;;;;;;;;;4994159;28;20476;-96
2021/12/02 07:05:16;;;;;;;1.10;1.00;;;;;;;;;;4995467;28;20420;-95
2021/12/02 07:07:42;;;;;;;0.80;0.80;;;;;;;;;;4995412;28;20482;-95
2021/12/02 07:10:13;;;;;;;0.90;0.90;;;;;;;;;;4995473;28;20420;-95
2021/12/02 07:12:41;;;;;;;0.80;0.80;;;;;;;;;;4997599;28;20538;-96
2021/12/02 07:15:19;;;;;;;1.00;0.90;;;;;;;;;;4996098;28;20439;-96
2021/12/02 07:17:49;;;;;;;0.80;0.80;;;;;;;;;;5002138;28;20497;-96
2021/12/02 07:20:15;;;;;;;2.10;2.00;;;;;;;;;;4997610;28;20419;-96
2021/12/02 07:22:41;;;;;;;1.03;0.97;;;;;;;;;;4996551;28;20535;-96
2021/12/02 07:25:07;;;;;;;0.90;0.90;;;;;;;;;;4995162;28;20435;-96
2021/12/02 07:27:33;;;;;;;0.80;0.80;;;;;;;;;;4987157;28;20499;-95
2021/12/02 07:29:59;;;;;;;0.90;0.80;;;;;;;;;;4989651;28;20465;-95
2021/12/02 07:32:26;;;;;;;0.80;0.70;;;;;;;;;;4993470;28;20458;-96
2021/12/02 07:34:53;;;;;;;0.80;0.80;;;;;;;;;;4995083;28;20446;-94
2021/12/02 07:37:19;;;;;;;0.80;0.80;;;;;;;;;;4995130;28;20558;-93
2021/12/02 07:39:46;;;;;;;0.80;0.80;;;;;;;;;;4995611;28;20431;-94
2021/12/02 07:42:12;;;;;;;0.93;0.90;;;;;;;;;;5012789;28;20942;-94
2021/12/02 07:44:38;;;;;;;0.80;0.80;;;;;;;;;;5004395;28;20443;-93
2021/12/02 07:47:05;;;;;;;0.90;0.90;;;;;;;;;;5009391;28;20558;-93
2021/12/02 07:49:31;;;;;;;0.80;0.80;;;;;;;;;;5032701;28;20442;-92
2021/12/02 07:51:59;;;;;;;0.80;0.80;;;;;;;;;;5018112;28;20426;-94
2021/12/02 07:54:26;;;;;;;0.83;0.83;;;;;;;;;;5035823;28;20458;-93
2021/12/02 07:56:52;;;;;;;0.80;0.70;;;;;;;;;;5035779;28;20434;-94
2021/12/02 07:59:19;;;;;;;0.80;0.80;;;;;;;;;;5034892;28;20906;-93
2021/12/02 08:01:45;;;;;;;1.83;1.70;;;;;;;;;;5016410;28;20472;-95
2021/12/02 08:04:11;;;;;;;1.00;0.90;;;;;;;;;;5035766;28;20441;-93
2021/12/02 08:06:37;;;;;;;0.87;0.87;;;;;;;;;;5035943;28;20477;-93
2021/12/02 08:09:04;;;;;;;1.10;1.00;;;;;;;;;;5018388;28;20441;-94
2021/12/02 08:11:31;;;;;;;1.00;0.90;;;;;;;;;;5004150;28;20445;-93
2021/12/02 08:13:57;;;;;;;0.93;0.90;;;;;;;;;;5034939;28;20465;-93
2021/12/02 08:16:23;;;;;;;0.80;0.80;;;;;;;;;;5035236;28;20426;-93
2021/12/02 08:18:49;;;;;;;0.80;0.80;;;;;;;;;;5017368;28;20434;-92
2021/12/02 08:21:15;;;;;;;0.90;0.90;;;;;;;;;;5015439;28;20857;-90
2021/12/02 08:23:41;;;;;;;0.80;0.80;;;;;;;;;;5038578;28;20441;-94
2021/12/02 08:26:07;;;;;;;12.13;3.27;;;;;;;;;;5040662;28;20442;-96
2021/12/02 08:28:33;;;;;;;0.90;0.90;;;;;;;;;;5035144;28;20875;-91
2021/12/02 08:30:59;;;;;;;0.80;0.80;;;;;;;;;;5014378;28;20426;-93
2021/12/02 08:33:25;;;;;;;1.10;1.00;;;;;;;;;;5036776;28;20446;-96
2021/12/02 08:35:51;;;;;;;1.00;0.90;;;;;;;;;;5026813;28;20430;-93
2021/12/02 08:38:19;;;;;;;0.87;0.87;;;;;;;;;;5031242;28;20438;-88
2021/12/02 08:40:48;;;;;;;1.03;0.93;;;;;;;;;;5031680;28;20423;-88
2021/12/02 08:43:15;;;;;;;1.00;0.90;;;;;;;;;;5030251;28;20437;-88
2021/12/02 08:45:42;;;;;;;1.00;0.90;;;;;;;;;;5030372;28;20449;-86
2021/12/02 08:48:09;;;;;;;0.80;0.70;;;;;;;;;;5029744;28;20830;-87
2021/12/02 08:50:36;;;;;;;1.00;0.90;;;;;;;;;;5030094;28;20449;-87
2021/12/02 08:53:03;;;;;;;0.97;0.90;;;;;;;;;;5030594;28;20468;-88
2021/12/02 08:55:30;;;;;;;0.80;0.80;;;;;;;;;;5031617;28;20891;-88
2021/12/02 08:57:56;;;;;;;1.03;0.93;;;;;;;;;;5030923;28;20435;-89
2021/12/02 09:00:27;;;;;;;1.10;1.00;;;;;;;;;;5025438;28;20470;-88
2021/12/02 09:02:54;;;;;;;0.80;0.80;;;;;;;;;;5031178;28;20934;-87
2021/12/02 09:05:20;;;;;;;0.80;0.80;;;;;;;;;;5013388;28;20849;-88
2021/12/02 09:07:46;;;;;;;0.87;0.87;;;;;;;;;;5029907;28;20496;-87
2021/12/02 09:10:13;;;;;;;0.80;0.70;;;;;;;;;;5013062;28;20442;-88
2021/12/02 09:12:39;;;;;;;0.80;0.80;;;;;;;;;;5012446;28;20446;-87
2021/12/02 09:15:08;;;;;;;1.03;0.93;;;;;;;;;;5029031;28;20421;-87
2021/12/02 09:17:34;;;;;;;0.80;0.70;;;;;;;;;;5031014;28;20428;-88
2021/12/02 09:20:00;;;;;;;0.80;0.80;;;;;;;;;;5030305;28;20430;-87
2021/12/02 09:22:26;;;;;;;0.97;0.90;;;;;;;;;;5028408;28;20492;-88
2021/12/02 09:24:52;;;;;;;0.90;0.80;;;;;;;;;;5030826;28;20524;-87
2021/12/02 09:27:18;;;;;;;1.00;0.90;;;;;;;;;;5030287;28;20490;-87
2021/12/02 09:29:44;;;;;;;0.80;0.80;;;;;;;;;;5030670;28;20483;-87
2021/12/02 09:32:11;;;;;;;0.80;0.80;;;;;;;;;;5028575;28;20438;-88
2021/12/02 09:34:37;;;;;;;0.80;0.77;;;;;;;;;;5032135;28;20526;-86
2021/12/02 09:37:03;;;;;;;0.80;0.80;;;;;;;;;;5032196;28;20521;-87
2021/12/02 09:39:31;;;;;;;0.80;0.70;;;;;;;;;;5030053;28;20487;-94
2021/12/02 09:41:58;;;;;;;0.83;0.80;;;;;;;;;;5016532;28;20933;-93
2021/12/02 09:44:24;;;;;;;0.80;0.70;;;;;;;;;;5013770;28;20457;-92
2021/12/02 09:46:51;;;;;;;0.83;0.80;;;;;;;;;;5004594;28;20653;-91
2021/12/02 09:49:17;;;;;;;0.80;0.80;;;;;;;;;;5012189;28;20443;-93
2021/12/02 09:54:25;;;;;;;0.90;0.80;;;;;;;;;;5010847;28;20438;-91
2021/12/02 09:56:53;;;;;;;0.90;0.80;;;;;;;;;;4992270;28;20518;-90
2021/12/02 09:59:28;;;;;;;0.87;0.80;;;;;;;;;;4996390;28;20938;-92
2021/12/02 10:01:59;;;;;;;0.80;0.70;;;;;;;;;;5009742;28;20446;-89
2021/12/02 10:04:26;;;;;;;0.80;0.70;;;;;;;;;;5012930;28;20470;-91
2021/12/02 10:07:16;;;;;;;0.80;0.80;;;;;;;;;;5012029;28;20486;-89
2021/12/02 10:09:53;;;;;;;0.80;0.70;;;;;;;;;;4994336;28;20432;-90
2021/12/02 10:12:22;;;;;;;0.80;0.80;;;;;;;;;;4994461;28;20912;-90
2021/12/02 10:14:54;;;;;;;0.80;0.70;;;;;;;;;;4991429;28;20490;-90
2021/12/02 10:20:43;;;;;;;0.90;0.80;;;;;;;;;;5025647;28;20421;-90
2021/12/02 10:23:08;;;;;;;0.80;0.77;;;;;;;;;;5007828;28;20436;-89
2021/12/02 10:25:35;;;;;;;0.87;0.80;;;;;;;;;;4993487;28;20419;-91
2021/12/02 10:28:05;;;;;;;0.83;0.80;;;;;;;;;;5012419;28;20470;-90
2021/12/02 10:30:31;;;;;;;0.90;0.80;;;;;;;;;;4992338;28;20439;-90
2021/12/02 10:32:57;;;;;;;0.80;0.70;;;;;;;;;;5011000;28;20514;-90
2021/12/02 10:35:36;;;;;;;0.93;0.83;;;;;;;;;;5012722;28;21028;-89
2021/12/02 10:38:02;;;;;;;0.87;0.80;;;;;;;;;;5010933;28;20468;-90
2021/12/02 10:40:28;;;;;;;1.07;0.97;;;;;;;;;;4993719;28;20522;-90
2021/12/02 10:42:54;;;;;;;1.00;0.90;;;;;;;;;;5011087;28;20439;-90
2021/12/02 10:45:22;;;;;;;1.20;1.10;;;;;;;;;;5009204;28;20439;-90
2021/12/02 10:47:52;;;;;;;0.80;0.80;;;;;;;;;;5020337;28;20509;-89
2021/12/02 10:50:18;;;;;;;0.90;0.80;;;;;;;;;;4996826;28;20427;-90
2021/12/02 10:52:44;;;;;;;0.80;0.70;;;;;;;;;;4993209;28;20443;-90
2021/12/02 10:55:12;;;;;;;0.80;0.70;;;;;;;;;;4994018;28;20458;-90
2021/12/02 10:57:52;;;;;;;0.80;0.70;;;;;;;;;;4996422;28;20522;-91
2021/12/02 11:00:19;;;;;;;0.90;0.80;;;;;;;;;;5012153;28;20489;-90
2021/12/02 11:02:52;;;;;;;0.90;0.80;;;;;;;;;;5009130;28;20542;-90
2021/12/02 11:05:28;;;;;;;0.87;0.80;;;;;;;;;;4995180;28;20493;-89
2021/12/02 11:07:56;;;;;;;1.00;0.90;;;;;;;;;;4993997;28;20484;-91
2021/12/02 11:10:22;;;;;;;0.80;0.73;;;;;;;;;;4997358;28;20470;-91
2021/12/02 11:12:52;;;;;;;0.97;0.87;;;;;;;;;;5006879;28;20442;-89
2021/12/02 11:15:17;;;;;;;0.90;0.80;;;;;;;;;;4992915;28;21892;-91
2021/12/02 11:17:48;;;;;;;0.83;0.80;;;;;;;;;;5012561;28;20550;-89
2021/12/02 11:20:22;;;;;;;1.00;0.90;;;;;;;;;;4996260;28;20278;-91
2021/12/02 11:22:49;;;;;;;0.90;0.80;;;;;;;;;;5012654;28;20435;-91
2021/12/02 11:25:15;;;;;;;0.80;0.70;;;;;;;;;;5017915;28;20427;-91
2021/12/02 11:27:46;;;;;;;0.83;0.80;;;;;;;;;;4995733;28;20899;-90
2021/12/02 11:30:14;;;;;;;0.80;0.80;;;;;;;;;;5016004;28;20427;-90
2021/12/02 11:32:48;;;;;;;1.00;0.90;;;;;;;;;;4998907;28;20447;-91
2021/12/02 11:35:22;;;;;;;1.00;0.90;;;;;;;;;;5010177;28;20444;-92
2021/12/02 11:37:50;;;;;;;0.80;0.70;;;;;;;;;;5012577;28;20478;-91
2021/12/02 11:40:20;;;;;;;0.80;0.80;;;;;;;;;;5000262;28;20443;-91
2021/12/02 11:42:48;;;;;;;0.90;0.80;;;;;;;;;;5028800;28;20445;-91
2021/12/02 11:45:15;;;;;;;0.87;0.80;;;;;;;;;;5007815;28;20427;-92
2021/12/02 11:47:41;;;;;;;0.90;0.80;;;;;;;;;;5018709;28;20490;-90
2021/12/02 11:50:08;;;;;;;0.90;0.80;;;;;;;;;;5014551;28;20441;-90
2021/12/02 11:52:38;;;;;;;0.90;0.80;;;;;;;;;;4996065;28;20443;-91
2021/12/02 11:55:06;;;;;;;0.90;0.80;;;;;;;;;;5014676;28;20430;-90
2021/12/02 11:57:33;;;;;;;0.80;0.70;;;;;;;;;;5022027;28;20828;-89
2021/12/02 12:00:00;;;;;;;0.80;0.80;;;;;;;;;;5013468;28;20450;-91
2021/12/02 12:02:26;;;;;;;0.80;0.80;;;;;;;;;;5008495;28;20570;-90
2021/12/02 12:04:54;;;;;;;0.80;0.70;;;;;;;;;;5012866;28;20783;-90
2021/12/02 12:07:22;;;;;;;0.90;0.80;;;;;;;;;;4989572;28;20562;-91
2021/12/02 12:09:48;;;;;;;0.90;0.80;;;;;;;;;;5011027;28;20439;-90
2021/12/02 12:12:14;;;;;;;0.90;0.70;;;;;;;;;;5008976;28;20457;-90
2021/12/02 12:14:41;;;;;;;0.80;0.70;;;;;;;;;;5011637;28;20443;-90
2021/12/02 12:17:12;;;;;;;0.83;0.80;;;;;;;;;;5013517;28;20442;-89
2021/12/02 12:19:42;;;;;;;1.20;1.10;;;;;;;;;;5011741;28;20493;-88
2021/12/02 12:22:11;;;;;;;0.80;0.70;;;;;;;;;;4997110;28;20449;-89
2021/12/02 12:24:47;;;;;;;0.90;0.80;;;;;;;;;;5011383;28;20540;-90
2021/12/02 12:27:18;;;;;;;0.80;0.63;;;;;;;;;;5005444;28;20467;-90
2021/12/02 12:29:46;;;;;;;0.80;0.70;;;;;;;;;;5000799;28;20459;-90
2021/12/02 12:33:18;;;;;;;0.90;0.80;;;;;;;;;;4996821;28;20569;-89
2021/12/02 12:35:22;;;;;;;0.90;0.80;;;;;;;;;;4987852;28;20500;-90
2021/12/02 12:37:51;;;;;;;0.90;0.70;;;;;;;;;;4991506;28;20439;-90
2021/12/02 12:40:19;;;;;;;0.80;0.70;;;;;;;;;;5009536;28;20439;-89
2021/12/02 12:42:45;;;;;;;0.83;0.70;;;;;;;;;;5010621;28;20435;-90
2021/12/02 12:45:12;;;;;;;0.90;0.80;;;;;;;;;;5018223;28;20923;-90
2021/12/02 12:47:43;;;;;;;0.80;0.70;;;;;;;;;;4997468;28;20518;-88
2021/12/02 12:50:23;;;;;;;1.13;1.03;;;;;;;;;;4999581;28;20505;-92
2021/12/02 12:52:53;;;;;;;0.90;0.70;;;;;;;;;;4995929;28;20443;-91
2021/12/02 12:55:20;;;;;;;0.80;0.60;;;;;;;;;;5013015;28;20493;-90
2021/12/02 12:58:05;;;;;;;0.90;0.77;;;;;;;;;;5014609;28;20439;-88
2021/12/02 13:00:35;;;;;;;0.80;0.70;;;;;;;;;;4998688;28;20560;-90
2021/12/02 13:03:05;;;;;;;0.80;0.70;;;;;;;;;;5002846;28;20457;-89
2021/12/02 13:05:50;;;;;;;0.90;0.80;;;;;;;;;;5001426;28;20458;-89
2021/12/02 13:08:24;;;;;;;0.80;0.73;;;;;;;;;;4998372;28;20487;-89
2021/12/02 13:10:55;;;;;;;0.90;0.70;;;;;;;;;;4999646;28;20920;-89
2021/12/02 13:13:22;;;;;;;0.80;0.70;;;;;;;;;;4990116;28;20447;-88
2021/12/02 13:15:48;;;;;;;0.90;0.80;;;;;;;;;;5009856;28;20522;-88
2021/12/02 13:18:34;;;;;;;1.30;1.20;;;;;;;;;;4994775;28;20439;-89
2021/12/02 13:21:33;;;;;;;1.37;1.13;;;;;;;;;;5010822;28;20423;-87
2021/12/02 13:24:09;;;;;;;0.90;0.80;;;;;;;;;;5012079;28;20869;-90
2021/12/02 13:26:59;;;;;;;0.80;0.70;;;;;;;;;;4994130;28;20529;-88
2021/12/02 13:29:30;;;;;;;0.80;0.80;;;;;;;;;;5013334;28;20798;-89
2021/12/02 13:31:57;;;;;;;0.80;0.70;;;;;;;;;;4992211;28;20837;-89
2021/12/02 13:34:25;;;;;;;0.90;0.77;;;;;;;;;;5010595;28;20521;-90
2021/12/02 13:36:51;;;;;;;0.83;0.70;;;;;;;;;;5001123;28;20479;-89
2021/12/02 13:39:25;;;;;;;0.90;0.80;;;;;;;;;;4994655;28;20835;-90
2021/12/02 13:41:55;;;;;;;0.83;0.70;;;;;;;;;;4990294;28;20436;-87
2021/12/02 13:44:32;;;;;;;0.80;0.70;;;;;;;;;;4993620;28;20923;-86
2021/12/02 13:47:00;;;;;;;2.17;1.40;;;;;;;;;;5016606;28;20520;-87
2021/12/02 13:49:32;;;;;;;0.80;0.70;;;;;;;;;;5012440;28;20500;-88
2021/12/02 13:55:03;;;;;;;0.93;0.83;;;;;;;;;;5030297;28;20496;-89
2021/12/02 13:57:50;;;;;;;0.90;0.80;;;;;;;;;;5013441;28;20819;-90
2021/12/02 14:00:33;;;;;;;0.80;0.80;;;;;;;;;;5031486;28;20461;-88
2021/12/02 14:03:10;;;;;;;0.80;0.60;;;;;;;;;;5025158;28;20801;-89
2021/12/02 14:05:38;;;;;;;0.80;0.70;;;;;;;;;;5012561;28;20545;-89
2021/12/02 14:08:05;;;;;;;0.83;0.70;;;;;;;;;;5024435;28;20485;-89
2021/12/02 14:10:32;;;;;;;0.80;0.70;;;;;;;;;;5023089;28;20442;-86
2021/12/02 14:13:09;;;;;;;0.80;0.60;;;;;;;;;;5030130;28;20457;-91
2021/12/02 14:15:42;;;;;;;0.83;0.70;;;;;;;;;;5005730;28;20441;-91
2021/12/02 14:18:20;;;;;;;0.83;0.73;;;;;;;;;;5006912;28;20455;-93
2021/12/02 14:20:54;;;;;;;3.00;1.80;;;;;;;;;;5028008;28;20446;-92
2021/12/02 14:23:22;;;;;;;0.87;0.80;;;;;;;;;;5032886;28;20902;-92
2021/12/02 14:25:52;;;;;;;0.90;0.80;;;;;;;;;;5014039;28;20435;-93
2021/12/02 14:28:21;;;;;;;0.87;0.80;;;;;;;;;;5033330;28;20482;-91
2021/12/02 14:30:52;;;;;;;0.90;0.80;;;;;;;;;;5034899;28;20527;-92
2021/12/02 14:33:22;;;;;;;0.80;0.80;;;;;;;;;;5019505;28;20496;-95
2021/12/02 14:35:50;;;;;;;0.80;0.80;;;;;;;;;;5031332;28;20457;-96
2021/12/02 14:38:20;;;;;;;0.80;0.73;;;;;;;;;;5021281;28;20530;-94
2021/12/02 14:40:47;;;;;;;0.80;0.70;;;;;;;;;;5030477;28;20464;-94
2021/12/02 14:43:21;;;;;;;1.00;0.90;;;;;;;;;;5016730;28;20434;-96
2021/12/02 14:45:48;;;;;;;0.83;0.80;;;;;;;;;;5014172;28;20458;-95
2021/12/02 14:48:25;;;;;;;0.90;0.80;;;;;;;;;;5023807;28;20471;-94
2021/12/02 14:50:59;;;;;;;0.80;0.80;;;;;;;;;;5028481;28;20520;-94
2021/12/02 14:53:26;;;;;;;0.90;0.80;;;;;;;;;;5031817;28;20461;-94
2021/12/02 14:55:52;;;;;;;1.37;1.27;;;;;;;;;;5015105;28;20418;-94
2021/12/02 14:58:18;;;;;;;0.97;0.90;;;;;;;;;;5007355;28;20435;-95
2021/12/02 15:00:44;;;;;;;1.10;1.00;;;;;;;;;;5029867;28;20449;-96
2021/12/02 15:03:10;;;;;;;0.97;0.90;;;;;;;;;;5024700;28;20521;-94
2021/12/02 15:05:35;;;;;;;0.80;0.70;;;;;;;;;;5021075;28;20461;-96
2021/12/02 15:08:09;;;;;;;1.47;1.37;;;;;;;;;;5028491;28;21008;-95
2021/12/02 15:10:37;;;;;;;0.80;0.80;;;;;;;;;;5016107;28;20442;-95
2021/12/02 15:13:16;;;;;;;0.80;0.80;;;;;;;;;;5017141;28;20449;-95